createdAt,value
2017-06-24T00:02:07.999Z,17.90
2017-06-24T00:04:35.632Z,17.90
2017-06-24T00:07:03.299Z,17.90
2017-06-24T00:09:30.964Z,18.00
2017-06-24T00:11:58.896Z,18.10
2017-06-24T00:14:26.526Z,18.10
2017-06-24T00:16:54.165Z,18.20
2017-06-24T00:19:21.831Z,18.20
2017-06-24T00:21:49.462Z,18.20
2017-06-24T00:24:17.437Z,18.30
2017-06-24T00:26:45.062Z,18.30
2017-06-24T00:29:12.698Z,18.20
2017-06-24T00:31:40.367Z,18.10
2017-06-24T00:34:08.020Z,18.10
2017-06-24T00:36:36.903Z,18.10
2017-06-24T00:39:04.546Z,18.00
2017-06-24T00:41:32.174Z,18.00
2017-06-24T00:43:59.839Z,17.90
2017-06-24T00:46:27.481Z,17.90
2017-06-24T00:48:55.559Z,17.90
2017-06-24T00:51:23.198Z,17.80
2017-06-24T00:53:50.851Z,17.80
2017-06-24T00:56:18.511Z,17.70
2017-06-24T00:58:46.154Z,17.70
2017-06-24T01:01:15.095Z,17.60
2017-06-24T01:03:42.823Z,17.70
2017-06-24T01:06:10.466Z,17.60
2017-06-24T01:08:38.127Z,17.70
2017-06-24T01:11:05.765Z,17.70
2017-06-24T01:13:33.715Z,17.70
2017-06-24T01:16:01.350Z,17.70
2017-06-24T01:18:29.756Z,17.70
2017-06-24T01:20:57.430Z,17.70
2017-06-24T01:23:25.074Z,17.80
2017-06-24T01:25:52.991Z,17.80
2017-06-24T01:28:20.630Z,17.70
2017-06-24T01:30:48.263Z,17.70
2017-06-24T01:33:15.931Z,17.60
2017-06-24T01:35:43.564Z,17.60
2017-06-24T01:38:11.516Z,17.60
2017-06-24T01:40:39.161Z,17.50
2017-06-24T01:43:06.803Z,17.50
2017-06-24T01:45:34.508Z,17.40
2017-06-24T01:48:02.147Z,17.40
2017-06-24T01:50:30.051Z,17.40
2017-06-24T01:52:57.686Z,17.50
2017-06-24T01:55:26.091Z,17.60
2017-06-24T01:57:53.766Z,17.60
2017-06-24T02:00:21.398Z,17.60
2017-06-24T02:02:49.332Z,17.70
2017-06-24T02:05:16.971Z,17.70
2017-06-24T02:07:44.607Z,17.70
2017-06-24T02:10:12.270Z,17.70
2017-06-24T02:12:39.906Z,17.70
2017-06-24T02:15:07.880Z,17.70
2017-06-24T02:17:35.506Z,17.80
2017-06-24T02:20:03.150Z,17.80
2017-06-24T02:22:30.814Z,17.80
2017-06-24T02:24:58.448Z,17.80
2017-06-24T02:27:26.518Z,17.90
2017-06-24T02:29:54.151Z,17.90
2017-06-24T02:32:21.785Z,17.80
2017-06-24T02:34:49.467Z,17.80
2017-06-24T02:37:17.114Z,17.70
2017-06-24T02:39:45.159Z,17.70
2017-06-24T02:42:12.802Z,17.60
2017-06-24T02:44:40.436Z,17.60
2017-06-24T02:47:08.108Z,17.60
2017-06-24T02:49:35.752Z,17.50
2017-06-24T02:52:03.697Z,17.60
2017-06-24T02:54:31.331Z,17.50
2017-06-24T02:56:58.972Z,17.40
2017-06-24T02:59:26.634Z,17.40
2017-06-24T03:01:54.281Z,17.30
2017-06-24T03:04:22.235Z,17.30
2017-06-24T03:06:49.868Z,17.20
2017-06-24T03:09:17.506Z,17.20
2017-06-24T03:11:45.173Z,17.10
2017-06-24T03:14:12.807Z,17.00
2017-06-24T03:16:40.485Z,17.00
2017-06-24T03:19:08.124Z,17.00
2017-06-24T03:21:36.069Z,17.00
2017-06-24T03:24:03.703Z,17.00
2017-06-24T03:26:31.342Z,17.10
2017-06-24T03:28:59.021Z,17.10
2017-06-24T03:31:26.654Z,17.20
2017-06-24T03:33:54.615Z,17.20
2017-06-24T03:36:22.257Z,17.20
2017-06-24T03:38:49.895Z,17.30
2017-06-24T03:41:17.571Z,17.40
2017-06-24T03:43:45.215Z,17.40
2017-06-24T03:46:13.123Z,17.40
2017-06-24T03:48:40.758Z,17.50
2017-06-24T03:51:08.392Z,17.60
2017-06-24T03:53:36.060Z,17.60
2017-06-24T03:56:03.701Z,17.60
2017-06-24T03:58:31.626Z,17.60
2017-06-24T04:00:59.255Z,17.60
2017-06-24T04:03:26.898Z,17.60
2017-06-24T04:05:54.568Z,17.60
2017-06-24T04:08:22.201Z,17.60
2017-06-24T04:10:50.143Z,17.60
2017-06-24T04:13:17.785Z,17.70
2017-06-24T04:15:45.423Z,17.60
2017-06-24T04:18:13.117Z,17.70
2017-06-24T04:20:41.520Z,17.80
2017-06-24T04:23:09.595Z,17.80
2017-06-24T04:25:37.231Z,17.90
2017-06-24T04:28:04.880Z,17.90
2017-06-24T04:30:32.549Z,17.90
2017-06-24T04:33:00.192Z,18.00
2017-06-24T04:35:28.244Z,18.00
2017-06-24T04:37:55.878Z,18.10
2017-06-24T04:40:23.523Z,18.20
2017-06-24T04:42:51.197Z,18.50
2017-06-24T04:45:18.840Z,18.70
2017-06-24T04:47:46.779Z,19.00
2017-06-24T04:50:14.404Z,19.20
2017-06-24T04:52:42.049Z,19.30
2017-06-24T04:55:10.470Z,19.70
2017-06-24T04:57:38.082Z,19.60
2017-06-24T05:00:06.087Z,19.90
2017-06-24T05:02:33.934Z,20.10
2017-06-24T05:05:01.552Z,20.40
2017-06-24T05:07:29.189Z,20.60
2017-06-24T05:09:56.827Z,20.70
2017-06-24T05:12:24.790Z,20.90
2017-06-24T05:14:52.404Z,20.90
2017-06-24T05:17:20.940Z,21.00
2017-06-24T05:19:48.598Z,21.00
2017-06-24T05:22:16.219Z,21.10
2017-06-24T05:24:44.138Z,21.20
2017-06-24T05:27:11.747Z,21.20
2017-06-24T05:29:39.366Z,21.40
2017-06-24T05:32:07.000Z,21.50
2017-06-24T05:34:34.618Z,21.50
2017-06-24T05:37:02.608Z,21.40
2017-06-24T05:39:30.231Z,21.60
2017-06-24T05:41:57.831Z,21.80
2017-06-24T05:44:25.515Z,22.00
2017-06-24T05:46:53.125Z,22.10
2017-06-24T05:49:21.122Z,21.90
2017-06-24T05:51:48.734Z,21.80
2017-06-24T05:54:17.119Z,21.90
2017-06-24T05:56:44.758Z,21.80
2017-06-24T05:59:13.138Z,22.30
2017-06-24T06:01:41.090Z,22.30
2017-06-24T06:04:10.316Z,22.20
2017-06-24T06:06:39.446Z,22.40
2017-06-24T06:09:07.204Z,22.60
2017-06-24T06:11:36.181Z,22.90
2017-06-24T06:14:05.473Z,22.90
2017-06-24T06:16:33.290Z,22.80
2017-06-24T06:19:01.668Z,23.80
2017-06-24T06:21:29.299Z,23.70
2017-06-24T06:23:57.662Z,24.20
2017-06-24T06:26:26.362Z,24.70
2017-06-24T06:28:53.963Z,24.60
2017-06-24T06:31:21.562Z,24.90
2017-06-24T06:33:49.230Z,24.90
2017-06-24T06:36:16.829Z,25.40
2017-06-24T06:38:44.821Z,25.70
2017-06-24T06:41:12.452Z,25.80
2017-06-24T06:43:40.046Z,25.80
2017-06-24T06:46:07.680Z,26.30
2017-06-24T06:48:35.294Z,27.20
2017-06-24T06:51:03.340Z,27.20
2017-06-24T06:53:33.435Z,27.40
2017-06-24T06:56:01.035Z,27.40
2017-06-24T06:58:28.669Z,27.60
2017-06-24T07:00:56.317Z,28.20
2017-06-24T07:03:24.327Z,28.40
2017-06-24T07:05:52.004Z,28.30
2017-06-24T07:08:19.595Z,28.20
2017-06-24T07:10:47.216Z,27.80
2017-06-24T07:13:14.815Z,27.60
2017-06-24T07:15:42.764Z,27.70
2017-06-24T07:18:10.367Z,28.30
2017-06-24T07:20:37.960Z,28.80
2017-06-24T07:23:05.608Z,29.00
2017-06-24T07:25:33.306Z,29.00
2017-06-24T07:28:01.305Z,29.40
2017-06-24T07:30:28.911Z,29.80
2017-06-24T07:32:56.528Z,29.80
2017-06-24T07:35:24.160Z,29.80
2017-06-24T07:37:51.762Z,29.70
2017-06-24T07:40:20.459Z,29.90
2017-06-24T07:42:48.062Z,29.90
2017-06-24T07:45:15.663Z,30.10
2017-06-24T07:47:43.300Z,30.30
2017-06-24T07:50:10.909Z,30.70
2017-06-24T07:52:38.852Z,30.70
2017-06-24T07:55:06.479Z,30.70
2017-06-24T07:57:34.075Z,30.70
2017-06-24T08:00:02.508Z,31.20
2017-06-24T08:02:30.197Z,31.20
2017-06-24T08:04:58.260Z,31.10
2017-06-24T08:07:25.971Z,31.50
2017-06-24T08:09:53.769Z,31.30
2017-06-24T08:12:21.483Z,31.20
2017-06-24T08:14:49.120Z,30.70
2017-06-24T08:17:17.985Z,31.10
2017-06-24T08:19:45.594Z,31.10
2017-06-24T08:22:13.201Z,30.80
2017-06-24T08:24:41.603Z,31.00
2017-06-24T08:27:09.496Z,31.00
2017-06-24T08:29:37.487Z,31.40
2017-06-24T08:32:05.086Z,32.00
2017-06-24T08:34:32.880Z,32.00
2017-06-24T08:37:00.683Z,31.50
2017-06-24T08:39:28.288Z,31.50
2017-06-24T08:41:56.227Z,32.10
2017-06-24T08:44:24.587Z,32.60
2017-06-24T08:46:53.521Z,33.40
2017-06-24T08:49:21.147Z,33.40
2017-06-24T08:51:48.747Z,33.00
2017-06-24T08:54:16.711Z,33.00
2017-06-24T08:56:45.070Z,32.60
2017-06-24T08:59:13.430Z,32.00
2017-06-24T09:01:41.054Z,32.00
2017-06-24T09:04:08.651Z,31.70
2017-06-24T09:06:36.534Z,31.80
2017-06-24T09:09:04.142Z,32.00
2017-06-24T09:11:31.740Z,31.70
2017-06-24T09:13:59.371Z,32.20
2017-06-24T09:16:26.966Z,31.80
2017-06-24T09:18:55.711Z,32.30
2017-06-24T09:21:23.311Z,32.30
2017-06-24T09:23:50.906Z,32.20
2017-06-24T09:26:18.541Z,31.10
2017-06-24T09:28:46.139Z,30.70
2017-06-24T09:31:14.075Z,31.10
2017-06-24T09:33:41.673Z,31.20
2017-06-24T09:36:09.271Z,31.20
2017-06-24T09:38:36.911Z,31.50
2017-06-24T09:41:05.279Z,32.60
2017-06-24T09:43:33.223Z,32.50
2017-06-24T09:46:02.678Z,32.70
2017-06-24T09:48:30.277Z,32.60
2017-06-24T09:50:57.932Z,33.00
2017-06-24T09:53:25.547Z,32.80
2017-06-24T09:55:54.241Z,32.40
2017-06-24T09:58:22.077Z,32.40
2017-06-24T10:00:49.790Z,32.30
2017-06-24T10:03:17.529Z,32.10
2017-06-24T10:05:45.123Z,32.20
2017-06-24T10:08:13.076Z,31.80
2017-06-24T10:10:40.675Z,32.00
2017-06-24T10:13:08.267Z,31.70
2017-06-24T10:15:36.910Z,31.80
2017-06-24T10:18:04.508Z,31.20
2017-06-24T10:20:32.442Z,31.40
2017-06-24T10:23:00.120Z,31.50
2017-06-24T10:25:27.776Z,31.40
2017-06-24T10:27:55.755Z,31.60
2017-06-24T10:30:23.355Z,31.50
2017-06-24T10:32:52.206Z,32.00
2017-06-24T10:35:19.850Z,32.10
2017-06-24T10:37:47.466Z,32.50
2017-06-24T10:40:15.098Z,32.60
2017-06-24T10:42:43.058Z,32.20
2017-06-24T10:45:11.187Z,31.20
2017-06-24T10:47:38.785Z,30.90
2017-06-24T10:50:06.386Z,31.30
2017-06-24T10:52:34.039Z,31.70
2017-06-24T10:55:01.647Z,32.00
2017-06-24T10:57:29.609Z,31.70
2017-06-24T10:59:57.211Z,31.40
2017-06-24T11:02:24.826Z,31.30
2017-06-24T11:04:52.898Z,31.00
2017-06-24T11:07:24.506Z,31.30
2017-06-24T11:09:52.430Z,31.20
2017-06-24T11:12:29.043Z,30.80
2017-06-24T11:14:57.126Z,30.80
2017-06-24T11:17:26.264Z,31.10
2017-06-24T11:19:55.379Z,31.00
2017-06-24T11:22:24.244Z,31.50
2017-06-24T11:24:51.847Z,31.90
2017-06-24T11:27:20.723Z,31.80
2017-06-24T11:29:48.914Z,31.10
2017-06-24T11:32:16.646Z,30.10
2017-06-24T11:34:44.330Z,29.70
2017-06-24T11:37:14.614Z,30.00
2017-06-24T11:39:42.853Z,30.40
2017-06-24T11:42:10.737Z,30.40
2017-06-24T11:44:38.392Z,30.70
2017-06-24T11:47:06.039Z,30.70
2017-06-24T11:49:34.449Z,30.50
2017-06-24T11:52:02.389Z,30.40
2017-06-24T11:54:30.020Z,29.70
2017-06-24T11:56:57.640Z,29.10
2017-06-24T11:59:25.378Z,28.60
2017-06-24T12:01:52.978Z,28.40
2017-06-24T12:04:21.002Z,28.30
2017-06-24T12:06:48.677Z,28.20
2017-06-24T12:09:17.070Z,28.00
2017-06-24T12:11:44.730Z,28.10
2017-06-24T12:14:12.330Z,28.30
2017-06-24T12:16:40.211Z,28.30
2017-06-24T12:19:07.820Z,28.30
2017-06-24T12:21:35.423Z,28.00
2017-06-24T12:24:03.079Z,28.00
2017-06-24T12:26:30.682Z,28.00
2017-06-24T12:28:58.638Z,28.30
2017-06-24T12:31:26.257Z,28.50
2017-06-24T12:33:54.622Z,28.60
2017-06-24T12:36:23.010Z,28.60
2017-06-24T12:38:50.617Z,28.60
2017-06-24T12:41:19.311Z,28.40
2017-06-24T12:43:46.930Z,28.30
2017-06-24T12:46:14.524Z,28.30
2017-06-24T12:48:42.150Z,28.30
2017-06-24T12:51:09.857Z,28.20
2017-06-24T12:53:37.747Z,28.10
2017-06-24T12:56:06.107Z,28.10
2017-06-24T12:58:33.718Z,28.00
2017-06-24T13:01:01.431Z,28.10
2017-06-24T13:03:29.139Z,28.10
2017-06-24T13:05:57.876Z,28.00
2017-06-24T13:08:25.475Z,27.90
2017-06-24T13:10:53.072Z,28.00
2017-06-24T13:13:20.723Z,28.00
2017-06-24T13:15:48.327Z,28.00
2017-06-24T13:18:16.307Z,28.00
2017-06-24T13:20:44.018Z,28.20
2017-06-24T13:23:11.623Z,28.10
2017-06-24T13:25:39.260Z,27.90
2017-06-24T13:28:06.902Z,27.90
2017-06-24T13:30:35.368Z,27.90
2017-06-24T13:33:03.049Z,27.90
2017-06-24T13:35:31.414Z,27.90
2017-06-24T13:37:59.047Z,27.80
2017-06-24T13:40:27.171Z,27.90
2017-06-24T13:42:55.081Z,27.90
2017-06-24T13:45:23.472Z,27.80
2017-06-24T13:47:51.067Z,27.80
2017-06-24T13:50:18.703Z,27.80
2017-06-24T13:52:46.303Z,27.90
2017-06-24T13:55:14.170Z,27.90
2017-06-24T13:57:41.766Z,27.70
2017-06-24T14:00:09.379Z,27.50
2017-06-24T14:02:38.083Z,27.50
2017-06-24T14:05:05.674Z,27.50
2017-06-24T14:07:33.628Z,27.50
2017-06-24T14:10:01.224Z,27.50
2017-06-24T14:12:29.779Z,27.60
2017-06-24T14:14:57.510Z,27.60
2017-06-24T14:17:25.912Z,27.70
2017-06-24T14:19:53.881Z,27.60
2017-06-24T14:22:21.537Z,27.60
2017-06-24T14:24:49.247Z,27.50
2017-06-24T14:27:17.646Z,27.50
2017-06-24T14:29:45.250Z,27.40
2017-06-24T14:32:13.951Z,27.40
2017-06-24T14:34:42.403Z,27.30
2017-06-24T14:37:10.759Z,27.50
2017-06-24T14:39:38.380Z,27.40
2017-06-24T14:42:06.027Z,27.50
2017-06-24T14:44:33.930Z,27.40
2017-06-24T14:47:01.532Z,27.50
2017-06-24T14:49:29.128Z,27.50
2017-06-24T14:51:56.761Z,27.50
2017-06-24T14:54:24.363Z,27.50
2017-06-24T14:56:52.274Z,27.40
2017-06-24T14:59:19.875Z,27.20
2017-06-24T15:01:47.474Z,27.30
2017-06-24T15:04:15.101Z,27.20
2017-06-24T15:06:42.742Z,27.10
2017-06-24T15:09:10.621Z,27.10
2017-06-24T15:11:38.215Z,27.00
2017-06-24T15:14:06.615Z,27.00
2017-06-24T15:16:34.647Z,27.00
2017-06-24T15:19:02.259Z,27.00
2017-06-24T15:21:30.258Z,26.90
2017-06-24T15:23:57.860Z,26.80
2017-06-24T15:26:25.478Z,26.70
2017-06-24T15:28:53.107Z,26.70
2017-06-24T15:31:20.699Z,26.70
2017-06-24T15:33:48.599Z,26.60
2017-06-24T15:36:17.046Z,26.60
2017-06-24T15:38:45.424Z,26.60
2017-06-24T15:41:13.331Z,26.60
2017-06-24T15:43:40.941Z,26.70
2017-06-24T15:46:09.098Z,26.60
2017-06-24T15:48:36.751Z,26.70
2017-06-24T15:51:04.377Z,26.80
2017-06-24T15:53:32.003Z,26.70
2017-06-24T15:56:00.406Z,26.60
2017-06-24T15:58:29.515Z,26.50
2017-06-24T16:00:57.910Z,26.50
2017-06-24T16:03:25.518Z,26.40
2017-06-24T16:05:53.183Z,26.50
2017-06-24T16:08:20.807Z,26.40
2017-06-24T16:10:48.845Z,26.40
2017-06-24T16:13:16.524Z,26.30
2017-06-24T16:15:44.136Z,26.20
2017-06-24T16:18:11.767Z,26.20
2017-06-24T16:20:39.374Z,26.20
2017-06-24T16:23:07.367Z,26.10
2017-06-24T16:25:34.971Z,26.10
2017-06-24T16:28:02.595Z,26.00
2017-06-24T16:30:30.225Z,25.90
2017-06-24T16:32:57.840Z,25.80
2017-06-24T16:35:26.502Z,25.80
2017-06-24T16:37:54.885Z,25.60
2017-06-24T16:40:22.495Z,25.60
2017-06-24T16:42:50.135Z,25.60
2017-06-24T16:45:17.738Z,25.60
2017-06-24T16:47:45.671Z,25.50
2017-06-24T16:50:14.043Z,25.30
2017-06-24T16:52:41.691Z,25.30
2017-06-24T16:55:09.402Z,25.30
2017-06-24T16:57:37.779Z,25.10
2017-06-24T17:00:05.750Z,25.10
2017-06-24T17:02:33.461Z,25.10
2017-06-24T17:05:01.060Z,25.00
2017-06-24T17:07:28.712Z,24.80
2017-06-24T17:09:56.343Z,24.80
2017-06-24T17:12:24.271Z,24.80
2017-06-24T17:14:52.639Z,24.60
2017-06-24T17:17:21.036Z,24.40
2017-06-24T17:19:48.678Z,24.40
2017-06-24T17:22:16.283Z,24.40
2017-06-24T17:24:45.031Z,24.20
2017-06-24T17:27:12.632Z,24.10
2017-06-24T17:29:40.247Z,24.20
2017-06-24T17:32:08.658Z,24.00
2017-06-24T17:34:36.259Z,24.00
2017-06-24T17:37:04.328Z,23.90
2017-06-24T17:39:31.941Z,23.90
2017-06-24T17:41:59.542Z,23.80
2017-06-24T17:44:27.182Z,23.80
2017-06-24T17:46:54.819Z,23.80
2017-06-24T17:49:22.783Z,23.70
2017-06-24T17:51:50.443Z,23.70
2017-06-24T17:54:18.055Z,23.60
2017-06-24T17:56:46.450Z,23.50
2017-06-24T17:59:14.070Z,23.50
2017-06-24T18:01:42.030Z,23.50
2017-06-24T18:04:09.631Z,23.40
2017-06-24T18:06:37.243Z,23.40
2017-06-24T18:09:04.880Z,23.30
2017-06-24T18:11:32.486Z,23.30
2017-06-24T18:14:00.482Z,23.20
2017-06-24T18:16:28.086Z,23.20
2017-06-24T18:18:55.722Z,23.10
2017-06-24T18:21:23.380Z,23.10
2017-06-24T18:23:51.050Z,23.00
2017-06-24T18:26:19.766Z,23.00
2017-06-24T18:28:47.378Z,22.90
2017-06-24T18:31:14.979Z,22.90
2017-06-24T18:33:42.619Z,22.80
2017-06-24T18:36:10.231Z,22.80
2017-06-24T18:38:38.177Z,22.60
2017-06-24T18:41:05.779Z,22.60
2017-06-24T18:43:33.386Z,22.60
2017-06-24T18:46:01.031Z,22.50
2017-06-24T18:48:28.635Z,22.40
2017-06-24T18:50:57.435Z,22.30
2017-06-24T18:53:25.044Z,22.20
2017-06-24T18:55:52.640Z,22.20
2017-06-24T18:58:20.314Z,22.10
2017-06-24T19:00:47.907Z,22.10
2017-06-24T19:03:15.851Z,22.00
2017-06-24T19:05:43.462Z,22.00
2017-06-24T19:08:11.071Z,21.90
2017-06-24T19:10:38.707Z,21.80
2017-06-24T19:13:06.303Z,21.80
2017-06-24T19:15:34.215Z,21.70
2017-06-24T19:18:01.821Z,21.60
2017-06-24T19:20:30.276Z,21.40
2017-06-24T19:22:57.926Z,21.30
2017-06-24T19:25:26.238Z,21.30
2017-06-24T19:27:54.207Z,21.20
2017-06-24T19:30:21.818Z,21.10
2017-06-24T19:32:49.428Z,21.10
2017-06-24T19:35:17.078Z,21.00
2017-06-24T19:37:44.682Z,21.00
2017-06-24T19:40:12.571Z,21.00
2017-06-24T19:42:40.183Z,21.00
2017-06-24T19:45:07.818Z,20.90
2017-06-24T19:47:35.495Z,20.80
2017-06-24T19:50:03.113Z,20.80
2017-06-24T19:52:31.046Z,20.80
2017-06-24T19:54:58.646Z,20.70
2017-06-24T19:57:26.256Z,20.60
2017-06-24T19:59:53.912Z,20.60
2017-06-24T20:02:21.510Z,20.50
2017-06-24T20:04:50.196Z,20.40
2017-06-24T20:07:17.814Z,20.40
2017-06-24T20:09:45.429Z,20.50
2017-06-24T20:12:13.068Z,20.40
2017-06-24T20:14:40.674Z,20.40
2017-06-24T20:17:08.563Z,20.30
2017-06-24T20:19:36.171Z,20.30
2017-06-24T20:22:04.555Z,20.10
2017-06-24T20:24:32.183Z,20.00
2017-06-24T20:26:59.818Z,20.10
2017-06-24T20:29:27.887Z,20.00
2017-06-24T20:31:55.506Z,19.90
2017-06-24T20:34:23.146Z,19.90
2017-06-24T20:36:51.566Z,19.70
2017-06-24T20:39:19.303Z,19.70
2017-06-24T20:41:46.936Z,19.70
2017-06-24T20:44:15.369Z,19.60
2017-06-24T20:46:43.775Z,19.40
2017-06-24T20:49:11.827Z,19.40
2017-06-24T20:51:39.456Z,19.40
2017-06-24T20:54:07.145Z,19.30
2017-06-24T20:56:34.843Z,19.30
2017-06-24T20:59:02.576Z,19.20
2017-06-24T21:01:31.283Z,19.20
2017-06-24T21:03:58.924Z,19.20
2017-06-24T21:06:26.582Z,19.20
2017-06-24T21:08:54.243Z,19.10
2017-06-24T21:11:21.870Z,19.10
2017-06-24T21:13:49.531Z,19.10
2017-06-24T21:16:17.195Z,19.00
2017-06-24T21:18:44.819Z,19.00
2017-06-24T21:21:12.467Z,19.00
2017-06-24T21:23:40.103Z,19.00
2017-06-24T21:26:07.750Z,18.90
2017-06-24T21:28:35.411Z,18.90
2017-06-24T21:31:03.045Z,18.90
2017-06-24T21:33:30.836Z,18.80
2017-06-24T21:35:58.601Z,18.70
2017-06-24T21:38:27.044Z,18.60
2017-06-24T21:40:54.822Z,18.60
2017-06-24T21:43:22.486Z,18.60
2017-06-24T21:45:50.166Z,18.50
2017-06-24T21:48:17.843Z,18.50
2017-06-24T21:50:45.775Z,18.40
2017-06-24T21:53:13.401Z,18.40
2017-06-24T21:55:41.039Z,18.40
2017-06-24T21:58:08.962Z,18.30
2017-06-24T22:00:37.374Z,18.30
2017-06-24T22:03:05.016Z,18.30
2017-06-24T22:05:32.974Z,18.40
2017-06-24T22:08:00.608Z,18.40
2017-06-24T22:10:28.261Z,18.30
2017-06-24T22:12:56.338Z,18.30
2017-06-24T22:15:23.975Z,18.30
2017-06-24T22:17:51.745Z,18.20
2017-06-24T22:20:19.671Z,18.20
2017-06-24T22:22:47.457Z,18.30
2017-06-24T22:25:15.198Z,18.40
2017-06-24T22:27:43.214Z,18.40
2017-06-24T22:30:10.940Z,18.40
2017-06-24T22:32:38.619Z,18.60
2017-06-24T22:35:06.596Z,18.60
2017-06-24T22:37:35.019Z,18.60
2017-06-24T22:40:02.660Z,18.60
2017-06-24T22:42:30.320Z,18.60
2017-06-24T22:44:57.950Z,18.70
2017-06-24T22:47:25.954Z,18.70
2017-06-24T22:49:53.635Z,18.70
2017-06-24T22:52:21.340Z,18.70
2017-06-24T22:54:49.040Z,18.70
2017-06-24T22:57:16.671Z,18.70
2017-06-24T22:59:44.604Z,18.70
2017-06-24T23:02:12.226Z,18.70
2017-06-24T23:04:39.861Z,18.70
2017-06-24T23:07:07.524Z,18.50
2017-06-24T23:09:35.168Z,18.50
2017-06-24T23:12:03.115Z,18.50
2017-06-24T23:14:30.744Z,18.40
2017-06-24T23:16:58.375Z,18.30
2017-06-24T23:19:26.046Z,18.30
2017-06-24T23:21:53.675Z,18.30
2017-06-24T23:24:21.702Z,18.30
2017-06-24T23:26:49.335Z,18.40
2017-06-24T23:29:16.967Z,18.50
2017-06-24T23:31:44.630Z,18.60
2017-06-24T23:34:12.259Z,18.60
2017-06-24T23:36:40.212Z,18.60
2017-06-24T23:39:07.834Z,18.70
2017-06-24T23:41:35.470Z,18.70
2017-06-24T23:44:03.130Z,18.80
2017-06-24T23:46:30.758Z,18.80
2017-06-24T23:48:58.726Z,18.90
2017-06-24T23:51:26.340Z,18.90
2017-06-24T23:53:53.976Z,18.90
2017-06-24T23:56:22.409Z,19.10
2017-06-24T23:58:50.042Z,19.00
